sensor_id;sensor_type;location;lat;lon;timestamp;P1;durP1;ratioP1;P2;durP2;ratioP2
73729;SDS011;62036;48.128;16.458;2022-12-07T00:01:35;5.13;;;2.80;;
73729;SDS011;62036;48.128;16.458;2022-12-07T00:04:03;5.47;;;3.00;;
73729;SDS011;62036;48.128;16.458;2022-12-07T00:06:43;6.70;;;2.88;;
73729;SDS011;62036;48.128;16.458;2022-12-07T00:09:10;5.65;;;2.90;;
73729;SDS011;62036;48.128;16.458;2022-12-07T00:11:36;5.70;;;2.95;;
73729;SDS011;62036;48.128;16.458;2022-12-07T00:14:03;5.30;;;3.47;;
73729;SDS011;62036;48.128;16.458;2022-12-07T00:16:30;4.25;;;2.90;;
73729;SDS011;62036;48.128;16.458;2022-12-07T00:18:57;5.57;;;3.13;;
73729;SDS011;62036;48.128;16.458;2022-12-07T00:21:27;4.80;;;2.75;;
73729;SDS011;62036;48.128;16.458;2022-12-07T00:23:53;5.00;;;2.70;;
73729;SDS011;62036;48.128;16.458;2022-12-07T00:26:22;4.47;;;3.20;;
73729;SDS011;62036;48.128;16.458;2022-12-07T00:28:49;5.10;;;2.80;;
73729;SDS011;62036;48.128;16.458;2022-12-07T00:31:17;5.53;;;2.88;;
73729;SDS011;62036;48.128;16.458;2022-12-07T00:33:43;6.47;;;3.10;;
73729;SDS011;62036;48.128;16.458;2022-12-07T00:36:10;5.10;;;2.90;;
73729;SDS011;62036;48.128;16.458;2022-12-07T00:38:37;4.85;;;2.60;;
73729;SDS011;62036;48.128;16.458;2022-12-07T00:41:39;6.80;;;3.60;;
73729;SDS011;62036;48.128;16.458;2022-12-07T00:44:04;6.75;;;3.53;;
73729;SDS011;62036;48.128;16.458;2022-12-07T00:46:30;5.20;;;3.50;;
73729;SDS011;62036;48.128;16.458;2022-12-07T00:48:56;5.68;;;3.50;;
73729;SDS011;62036;48.128;16.458;2022-12-07T00:51:23;8.32;;;3.83;;
73729;SDS011;62036;48.128;16.458;2022-12-07T00:53:49;5.63;;;3.55;;
73729;SDS011;62036;48.128;16.458;2022-12-07T00:56:16;7.45;;;3.80;;
73729;SDS011;62036;48.128;16.458;2022-12-07T00:58:43;8.48;;;4.72;;
73729;SDS011;62036;48.128;16.458;2022-12-07T01:01:09;6.70;;;4.25;;
73729;SDS011;62036;48.128;16.458;2022-12-07T01:03:36;8.48;;;4.35;;
73729;SDS011;62036;48.128;16.458;2022-12-07T01:06:02;6.22;;;3.90;;
73729;SDS011;62036;48.128;16.458;2022-12-07T01:08:28;8.57;;;4.82;;
73729;SDS011;62036;48.128;16.458;2022-12-07T01:11:02;7.28;;;4.22;;
73729;SDS011;62036;48.128;16.458;2022-12-07T01:13:28;10.30;;;5.00;;
73729;SDS011;62036;48.128;16.458;2022-12-07T01:15:57;8.63;;;4.90;;
73729;SDS011;62036;48.128;16.458;2022-12-07T01:18:24;8.82;;;4.97;;
73729;SDS011;62036;48.128;16.458;2022-12-07T01:21:24;6.93;;;4.38;;
73729;SDS011;62036;48.128;16.458;2022-12-07T01:23:43;8.75;;;4.70;;
73729;SDS011;62036;48.128;16.458;2022-12-07T01:26:11;6.80;;;3.95;;
73729;SDS011;62036;48.128;16.458;2022-12-07T01:28:37;7.05;;;4.40;;
73729;SDS011;62036;48.128;16.458;2022-12-07T01:31:06;7.55;;;4.47;;
73729;SDS011;62036;48.128;16.458;2022-12-07T01:33:34;7.88;;;4.43;;
73729;SDS011;62036;48.128;16.458;2022-12-07T01:36:07;7.13;;;4.05;;
73729;SDS011;62036;48.128;16.458;2022-12-07T01:38:33;7.80;;;4.63;;
73729;SDS011;62036;48.128;16.458;2022-12-07T01:41:00;6.78;;;4.00;;
73729;SDS011;62036;48.128;16.458;2022-12-07T01:43:27;9.23;;;4.80;;
73729;SDS011;62036;48.128;16.458;2022-12-07T01:45:54;7.60;;;4.47;;
73729;SDS011;62036;48.128;16.458;2022-12-07T01:48:22;8.60;;;5.30;;
73729;SDS011;62036;48.128;16.458;2022-12-07T01:50:50;8.55;;;5.30;;
73729;SDS011;62036;48.128;16.458;2022-12-07T01:53:17;9.13;;;5.72;;
73729;SDS011;62036;48.128;16.458;2022-12-07T01:55:44;9.02;;;5.15;;
73729;SDS011;62036;48.128;16.458;2022-12-07T01:58:11;8.50;;;4.68;;
73729;SDS011;62036;48.128;16.458;2022-12-07T02:00:38;12.95;;;5.57;;
73729;SDS011;62036;48.128;16.458;2022-12-07T02:03:08;9.68;;;5.10;;
73729;SDS011;62036;48.128;16.458;2022-12-07T02:05:37;10.98;;;6.28;;
73729;SDS011;62036;48.128;16.458;2022-12-07T02:08:03;12.82;;;6.07;;
73729;SDS011;62036;48.128;16.458;2022-12-07T02:10:30;8.57;;;5.18;;
73729;SDS011;62036;48.128;16.458;2022-12-07T02:15:24;11.48;;;5.82;;
73729;SDS011;62036;48.128;16.458;2022-12-07T02:20:23;13.77;;;7.28;;
73729;SDS011;62036;48.128;16.458;2022-12-07T02:23:04;11.82;;;6.40;;
73729;SDS011;62036;48.128;16.458;2022-12-07T02:28:19;10.63;;;5.43;;
73729;SDS011;62036;48.128;16.458;2022-12-07T02:30:47;9.55;;;5.40;;
73729;SDS011;62036;48.128;16.458;2022-12-07T02:33:18;10.65;;;5.68;;
73729;SDS011;62036;48.128;16.458;2022-12-07T02:35:50;11.30;;;5.97;;
73729;SDS011;62036;48.128;16.458;2022-12-07T02:40:50;11.23;;;5.65;;
73729;SDS011;62036;48.128;16.458;2022-12-07T02:43:27;8.30;;;5.03;;
73729;SDS011;62036;48.128;16.458;2022-12-07T02:45:55;14.10;;;5.60;;
73729;SDS011;62036;48.128;16.458;2022-12-07T02:48:23;9.32;;;4.95;;
73729;SDS011;62036;48.128;16.458;2022-12-07T02:50:51;9.02;;;4.57;;
73729;SDS011;62036;48.128;16.458;2022-12-07T02:53:37;10.27;;;5.07;;
73729;SDS011;62036;48.128;16.458;2022-12-07T03:01:08;11.77;;;6.45;;
73729;SDS011;62036;48.128;16.458;2022-12-07T03:03:39;10.43;;;5.35;;
73729;SDS011;62036;48.128;16.458;2022-12-07T03:06:07;10.68;;;5.20;;
73729;SDS011;62036;48.128;16.458;2022-12-07T03:08:43;12.60;;;5.15;;
73729;SDS011;62036;48.128;16.458;2022-12-07T03:11:12;10.68;;;5.90;;
73729;SDS011;62036;48.128;16.458;2022-12-07T03:16:15;10.05;;;5.00;;
73729;SDS011;62036;48.128;16.458;2022-12-07T03:19:01;9.43;;;5.30;;
73729;SDS011;62036;48.128;16.458;2022-12-07T03:21:38;10.30;;;4.97;;
73729;SDS011;62036;48.128;16.458;2022-12-07T03:24:15;8.73;;;5.05;;
73729;SDS011;62036;48.128;16.458;2022-12-07T03:26:44;9.82;;;5.30;;
73729;SDS011;62036;48.128;16.458;2022-12-07T03:29:14;9.23;;;5.07;;
73729;SDS011;62036;48.128;16.458;2022-12-07T03:31:43;11.23;;;5.55;;
73729;SDS011;62036;48.128;16.458;2022-12-07T03:34:13;8.50;;;5.20;;
73729;SDS011;62036;48.128;16.458;2022-12-07T03:36:48;12.82;;;5.18;;
73729;SDS011;62036;48.128;16.458;2022-12-07T03:44:13;8.60;;;4.70;;
73729;SDS011;62036;48.128;16.458;2022-12-07T03:46:42;9.90;;;5.10;;
73729;SDS011;62036;48.128;16.458;2022-12-07T03:49:21;8.23;;;4.28;;
73729;SDS011;62036;48.128;16.458;2022-12-07T03:51:51;11.27;;;5.35;;
73729;SDS011;62036;48.128;16.458;2022-12-07T03:54:31;7.90;;;4.88;;
73729;SDS011;62036;48.128;16.458;2022-12-07T03:56:58;8.60;;;4.78;;
73729;SDS011;62036;48.128;16.458;2022-12-07T03:59:25;8.35;;;4.68;;
73729;SDS011;62036;48.128;16.458;2022-12-07T04:01:53;6.68;;;3.88;;
73729;SDS011;62036;48.128;16.458;2022-12-07T04:04:19;9.32;;;4.78;;
73729;SDS011;62036;48.128;16.458;2022-12-07T04:06:45;8.85;;;4.90;;
73729;SDS011;62036;48.128;16.458;2022-12-07T04:09:12;6.75;;;4.05;;
73729;SDS011;62036;48.128;16.458;2022-12-07T04:11:39;8.48;;;4.22;;
73729;SDS011;62036;48.128;16.458;2022-12-07T04:14:05;9.75;;;4.85;;
73729;SDS011;62036;48.128;16.458;2022-12-07T04:16:54;7.10;;;4.05;;
73729;SDS011;62036;48.128;16.458;2022-12-07T04:19:27;7.60;;;4.63;;
73729;SDS011;62036;48.128;16.458;2022-12-07T04:21:54;9.50;;;5.00;;
73729;SDS011;62036;48.128;16.458;2022-12-07T04:24:20;8.73;;;4.75;;
73729;SDS011;62036;48.128;16.458;2022-12-07T04:26:46;9.25;;;5.05;;
73729;SDS011;62036;48.128;16.458;2022-12-07T04:29:13;8.93;;;4.40;;
73729;SDS011;62036;48.128;16.458;2022-12-07T04:31:39;7.82;;;4.35;;
73729;SDS011;62036;48.128;16.458;2022-12-07T04:34:06;9.93;;;4.60;;
73729;SDS011;62036;48.128;16.458;2022-12-07T04:36:32;9.10;;;4.97;;
73729;SDS011;62036;48.128;16.458;2022-12-07T04:38:58;8.45;;;4.40;;
73729;SDS011;62036;48.128;16.458;2022-12-07T04:41:24;9.07;;;4.50;;
73729;SDS011;62036;48.128;16.458;2022-12-07T04:43:57;8.27;;;4.47;;
73729;SDS011;62036;48.128;16.458;2022-12-07T04:46:24;10.35;;;4.35;;
73729;SDS011;62036;48.128;16.458;2022-12-07T04:48:51;6.70;;;3.97;;
73729;SDS011;62036;48.128;16.458;2022-12-07T04:51:21;10.07;;;4.35;;
73729;SDS011;62036;48.128;16.458;2022-12-07T04:53:48;7.40;;;4.25;;
73729;SDS011;62036;48.128;16.458;2022-12-07T04:56:14;7.38;;;3.88;;
73729;SDS011;62036;48.128;16.458;2022-12-07T04:58:41;9.77;;;4.72;;
73729;SDS011;62036;48.128;16.458;2022-12-07T05:01:07;8.27;;;4.30;;
73729;SDS011;62036;48.128;16.458;2022-12-07T05:03:33;10.27;;;5.15;;
73729;SDS011;62036;48.128;16.458;2022-12-07T05:05:59;8.88;;;4.72;;
73729;SDS011;62036;48.128;16.458;2022-12-07T05:08:25;9.18;;;4.60;;
73729;SDS011;62036;48.128;16.458;2022-12-07T05:10:51;8.35;;;4.20;;
73729;SDS011;62036;48.128;16.458;2022-12-07T05:13:17;7.30;;;4.03;;
73729;SDS011;62036;48.128;16.458;2022-12-07T05:15:43;10.18;;;4.32;;
73729;SDS011;62036;48.128;16.458;2022-12-07T05:18:10;8.40;;;4.50;;
73729;SDS011;62036;48.128;16.458;2022-12-07T05:20:37;9.60;;;4.10;;
73729;SDS011;62036;48.128;16.458;2022-12-07T05:23:03;8.43;;;4.03;;
73729;SDS011;62036;48.128;16.458;2022-12-07T05:25:29;9.65;;;4.15;;
73729;SDS011;62036;48.128;16.458;2022-12-07T05:27:55;8.05;;;4.22;;
73729;SDS011;62036;48.128;16.458;2022-12-07T05:30:22;10.40;;;4.85;;
73729;SDS011;62036;48.128;16.458;2022-12-07T05:32:48;9.32;;;4.38;;
73729;SDS011;62036;48.128;16.458;2022-12-07T05:35:15;9.98;;;5.05;;
73729;SDS011;62036;48.128;16.458;2022-12-07T05:37:41;10.18;;;4.80;;
73729;SDS011;62036;48.128;16.458;2022-12-07T05:40:07;8.77;;;4.22;;
73729;SDS011;62036;48.128;16.458;2022-12-07T05:42:33;8.95;;;4.80;;
73729;SDS011;62036;48.128;16.458;2022-12-07T05:44:59;7.60;;;3.75;;
73729;SDS011;62036;48.128;16.458;2022-12-07T05:47:25;9.07;;;4.22;;
73729;SDS011;62036;48.128;16.458;2022-12-07T05:49:51;9.75;;;4.30;;
73729;SDS011;62036;48.128;16.458;2022-12-07T05:52:17;8.98;;;3.90;;
73729;SDS011;62036;48.128;16.458;2022-12-07T05:54:44;7.97;;;4.20;;
73729;SDS011;62036;48.128;16.458;2022-12-07T05:57:10;7.65;;;3.92;;
73729;SDS011;62036;48.128;16.458;2022-12-07T05:59:36;9.40;;;3.97;;
73729;SDS011;62036;48.128;16.458;2022-12-07T06:02:03;5.88;;;3.47;;
73729;SDS011;62036;48.128;16.458;2022-12-07T06:04:31;7.15;;;3.72;;
73729;SDS011;62036;48.128;16.458;2022-12-07T06:06:58;7.53;;;3.92;;
73729;SDS011;62036;48.128;16.458;2022-12-07T06:09:24;8.90;;;3.65;;
73729;SDS011;62036;48.128;16.458;2022-12-07T06:11:51;6.22;;;3.28;;
73729;SDS011;62036;48.128;16.458;2022-12-07T06:14:36;7.55;;;3.80;;
73729;SDS011;62036;48.128;16.458;2022-12-07T06:17:02;7.68;;;3.72;;
73729;SDS011;62036;48.128;16.458;2022-12-07T06:19:28;9.10;;;3.53;;
73729;SDS011;62036;48.128;16.458;2022-12-07T06:21:54;7.70;;;3.53;;
73729;SDS011;62036;48.128;16.458;2022-12-07T06:24:20;6.40;;;3.55;;
73729;SDS011;62036;48.128;16.458;2022-12-07T06:26:46;5.65;;;3.25;;
73729;SDS011;62036;48.128;16.458;2022-12-07T06:29:13;5.85;;;3.47;;
73729;SDS011;62036;48.128;16.458;2022-12-07T06:31:39;6.03;;;3.53;;
73729;SDS011;62036;48.128;16.458;2022-12-07T06:34:06;8.63;;;3.88;;
73729;SDS011;62036;48.128;16.458;2022-12-07T06:42:40;7.65;;;3.58;;
73729;SDS011;62036;48.128;16.458;2022-12-07T06:45:06;5.22;;;3.20;;
73729;SDS011;62036;48.128;16.458;2022-12-07T06:47:32;7.70;;;3.28;;
73729;SDS011;62036;48.128;16.458;2022-12-07T06:49:58;6.53;;;3.40;;
73729;SDS011;62036;48.128;16.458;2022-12-07T06:52:24;6.63;;;3.22;;
73729;SDS011;62036;48.128;16.458;2022-12-07T06:54:50;6.32;;;3.53;;
73729;SDS011;62036;48.128;16.458;2022-12-07T06:57:16;5.63;;;3.53;;
73729;SDS011;62036;48.128;16.458;2022-12-07T06:59:42;5.93;;;2.90;;
73729;SDS011;62036;48.128;16.458;2022-12-07T07:02:08;5.78;;;3.35;;
73729;SDS011;62036;48.128;16.458;2022-12-07T07:04:35;8.82;;;4.00;;
73729;SDS011;62036;48.128;16.458;2022-12-07T07:07:01;6.75;;;3.53;;
73729;SDS011;62036;48.128;16.458;2022-12-07T07:09:27;6.72;;;3.30;;
73729;SDS011;62036;48.128;16.458;2022-12-07T07:11:53;4.82;;;3.25;;
73729;SDS011;62036;48.128;16.458;2022-12-07T07:14:19;6.07;;;3.40;;
73729;SDS011;62036;48.128;16.458;2022-12-07T07:16:46;6.43;;;3.28;;
73729;SDS011;62036;48.128;16.458;2022-12-07T07:19:12;6.28;;;3.67;;
73729;SDS011;62036;48.128;16.458;2022-12-07T07:21:38;8.40;;;4.07;;
73729;SDS011;62036;48.128;16.458;2022-12-07T07:24:04;9.52;;;3.88;;
73729;SDS011;62036;48.128;16.458;2022-12-07T07:26:30;8.35;;;3.47;;
73729;SDS011;62036;48.128;16.458;2022-12-07T07:28:56;6.20;;;3.33;;
73729;SDS011;62036;48.128;16.458;2022-12-07T07:31:22;4.60;;;3.28;;
73729;SDS011;62036;48.128;16.458;2022-12-07T07:33:48;6.38;;;3.03;;
73729;SDS011;62036;48.128;16.458;2022-12-07T07:36:14;5.15;;;3.15;;
73729;SDS011;62036;48.128;16.458;2022-12-07T07:38:40;7.30;;;3.55;;
73729;SDS011;62036;48.128;16.458;2022-12-07T07:41:06;7.60;;;4.00;;
73729;SDS011;62036;48.128;16.458;2022-12-07T07:43:32;5.63;;;3.35;;
73729;SDS011;62036;48.128;16.458;2022-12-07T07:45:58;6.45;;;3.47;;
73729;SDS011;62036;48.128;16.458;2022-12-07T07:48:24;6.68;;;3.40;;
73729;SDS011;62036;48.128;16.458;2022-12-07T07:50:51;6.25;;;3.40;;
73729;SDS011;62036;48.128;16.458;2022-12-07T07:53:17;7.18;;;3.75;;
73729;SDS011;62036;48.128;16.458;2022-12-07T07:55:52;6.47;;;3.35;;
73729;SDS011;62036;48.128;16.458;2022-12-07T07:58:19;7.82;;;3.72;;
73729;SDS011;62036;48.128;16.458;2022-12-07T08:00:45;5.43;;;3.20;;
73729;SDS011;62036;48.128;16.458;2022-12-07T08:03:11;5.32;;;3.63;;
73729;SDS011;62036;48.128;16.458;2022-12-07T08:05:37;5.40;;;3.15;;
73729;SDS011;62036;48.128;16.458;2022-12-07T08:08:03;4.63;;;2.95;;
73729;SDS011;62036;48.128;16.458;2022-12-07T08:10:30;4.55;;;3.00;;
73729;SDS011;62036;48.128;16.458;2022-12-07T08:13:00;4.25;;;2.90;;
73729;SDS011;62036;48.128;16.458;2022-12-07T08:15:36;5.68;;;2.92;;
73729;SDS011;62036;48.128;16.458;2022-12-07T08:18:02;5.18;;;2.70;;
73729;SDS011;62036;48.128;16.458;2022-12-07T08:20:31;5.03;;;2.75;;
73729;SDS011;62036;48.128;16.458;2022-12-07T08:22:58;7.50;;;3.83;;
73729;SDS011;62036;48.128;16.458;2022-12-07T08:25:24;30.65;;;13.05;;
73729;SDS011;62036;48.128;16.458;2022-12-07T08:27:51;48.75;;;17.23;;
73729;SDS011;62036;48.128;16.458;2022-12-07T08:30:17;33.47;;;12.90;;
73729;SDS011;62036;48.128;16.458;2022-12-07T08:32:46;17.75;;;8.70;;
73729;SDS011;62036;48.128;16.458;2022-12-07T08:35:13;6.40;;;3.97;;
73729;SDS011;62036;48.128;16.458;2022-12-07T08:37:39;3.00;;;2.45;;
73729;SDS011;62036;48.128;16.458;2022-12-07T08:40:05;3.67;;;2.60;;
73729;SDS011;62036;48.128;16.458;2022-12-07T08:42:32;4.30;;;2.92;;
73729;SDS011;62036;48.128;16.458;2022-12-07T08:45:05;2.95;;;2.13;;
73729;SDS011;62036;48.128;16.458;2022-12-07T08:47:31;4.63;;;2.70;;
73729;SDS011;62036;48.128;16.458;2022-12-07T08:49:58;5.10;;;2.40;;
73729;SDS011;62036;48.128;16.458;2022-12-07T08:52:28;6.05;;;3.20;;
73729;SDS011;62036;48.128;16.458;2022-12-07T08:54:55;4.47;;;2.20;;
73729;SDS011;62036;48.128;16.458;2022-12-07T08:57:21;5.55;;;2.83;;
73729;SDS011;62036;48.128;16.458;2022-12-07T08:59:47;3.55;;;2.53;;
73729;SDS011;62036;48.128;16.458;2022-12-07T09:02:13;5.20;;;2.58;;
73729;SDS011;62036;48.128;16.458;2022-12-07T09:04:39;3.70;;;2.13;;
73729;SDS011;62036;48.128;16.458;2022-12-07T09:07:05;4.43;;;2.67;;
73729;SDS011;62036;48.128;16.458;2022-12-07T09:09:31;5.80;;;2.90;;
73729;SDS011;62036;48.128;16.458;2022-12-07T09:11:58;3.03;;;2.20;;
73729;SDS011;62036;48.128;16.458;2022-12-07T09:14:24;3.45;;;2.03;;
73729;SDS011;62036;48.128;16.458;2022-12-07T09:16:50;3.78;;;2.58;;
73729;SDS011;62036;48.128;16.458;2022-12-07T09:19:16;3.10;;;2.30;;
73729;SDS011;62036;48.128;16.458;2022-12-07T09:21:42;3.10;;;1.90;;
73729;SDS011;62036;48.128;16.458;2022-12-07T09:24:08;5.15;;;2.45;;
73729;SDS011;62036;48.128;16.458;2022-12-07T09:26:34;4.55;;;2.53;;
73729;SDS011;62036;48.128;16.458;2022-12-07T09:29:01;4.22;;;2.20;;
73729;SDS011;62036;48.128;16.458;2022-12-07T09:31:27;3.35;;;2.70;;
73729;SDS011;62036;48.128;16.458;2022-12-07T09:33:55;4.20;;;2.80;;
73729;SDS011;62036;48.128;16.458;2022-12-07T09:36:22;4.10;;;2.53;;
73729;SDS011;62036;48.128;16.458;2022-12-07T09:38:48;3.65;;;2.42;;
73729;SDS011;62036;48.128;16.458;2022-12-07T09:41:14;3.47;;;2.40;;
73729;SDS011;62036;48.128;16.458;2022-12-07T09:43:41;4.95;;;2.70;;
73729;SDS011;62036;48.128;16.458;2022-12-07T09:46:08;3.72;;;2.35;;
73729;SDS011;62036;48.128;16.458;2022-12-07T09:48:36;3.67;;;2.60;;
73729;SDS011;62036;48.128;16.458;2022-12-07T09:51:25;5.50;;;3.20;;
73729;SDS011;62036;48.128;16.458;2022-12-07T09:53:51;6.22;;;3.03;;
73729;SDS011;62036;48.128;16.458;2022-12-07T09:56:17;5.50;;;3.03;;
73729;SDS011;62036;48.128;16.458;2022-12-07T09:58:44;4.65;;;2.45;;
73729;SDS011;62036;48.128;16.458;2022-12-07T10:01:15;5.15;;;3.33;;
73729;SDS011;62036;48.128;16.458;2022-12-07T10:03:49;3.75;;;2.88;;
73729;SDS011;62036;48.128;16.458;2022-12-07T10:06:15;5.80;;;3.30;;
73729;SDS011;62036;48.128;16.458;2022-12-07T10:08:41;5.13;;;3.25;;
73729;SDS011;62036;48.128;16.458;2022-12-07T10:11:08;6.68;;;3.47;;
73729;SDS011;62036;48.128;16.458;2022-12-07T10:16:01;3.28;;;1.85;;
73729;SDS011;62036;48.128;16.458;2022-12-07T10:21:16;4.43;;;3.08;;
73729;SDS011;62036;48.128;16.458;2022-12-07T10:26:29;5.28;;;3.25;;
73729;SDS011;62036;48.128;16.458;2022-12-07T10:28:55;3.58;;;2.35;;
73729;SDS011;62036;48.128;16.458;2022-12-07T10:31:22;4.10;;;2.67;;
73729;SDS011;62036;48.128;16.458;2022-12-07T10:33:56;4.80;;;2.95;;
73729;SDS011;62036;48.128;16.458;2022-12-07T10:39:12;2.95;;;1.98;;
73729;SDS011;62036;48.128;16.458;2022-12-07T10:44:21;3.53;;;2.35;;
73729;SDS011;62036;48.128;16.458;2022-12-07T10:46:53;5.35;;;2.83;;
73729;SDS011;62036;48.128;16.458;2022-12-07T10:49:41;4.32;;;2.10;;
73729;SDS011;62036;48.128;16.458;2022-12-07T10:52:30;3.75;;;2.28;;
73729;SDS011;62036;48.128;16.458;2022-12-07T11:10:22;4.43;;;3.22;;
73729;SDS011;62036;48.128;16.458;2022-12-07T11:26:52;4.35;;;2.75;;
73729;SDS011;62036;48.128;16.458;2022-12-07T11:34:52;2.78;;;2.00;;
73729;SDS011;62036;48.128;16.458;2022-12-07T11:37:12;5.20;;;2.90;;
73729;SDS011;62036;48.128;16.458;2022-12-07T11:39:41;3.92;;;2.47;;
73729;SDS011;62036;48.128;16.458;2022-12-07T11:42:10;3.08;;;2.20;;
73729;SDS011;62036;48.128;16.458;2022-12-07T11:44:47;6.38;;;2.67;;
73729;SDS011;62036;48.128;16.458;2022-12-07T11:47:20;2.63;;;1.73;;
73729;SDS011;62036;48.128;16.458;2022-12-07T11:49:53;4.13;;;2.33;;
73729;SDS011;62036;48.128;16.458;2022-12-07T11:54:51;4.45;;;2.83;;
73729;SDS011;62036;48.128;16.458;2022-12-07T11:57:27;3.90;;;2.53;;
73729;SDS011;62036;48.128;16.458;2022-12-07T12:00:03;4.20;;;2.03;;
73729;SDS011;62036;48.128;16.458;2022-12-07T12:02:50;4.28;;;2.80;;
73729;SDS011;62036;48.128;16.458;2022-12-07T12:05:19;6.15;;;2.90;;
73729;SDS011;62036;48.128;16.458;2022-12-07T12:07:47;4.97;;;2.72;;
73729;SDS011;62036;48.128;16.458;2022-12-07T12:20:41;5.07;;;3.10;;
73729;SDS011;62036;48.128;16.458;2022-12-07T12:23:13;5.30;;;2.80;;
73729;SDS011;62036;48.128;16.458;2022-12-07T12:25:45;5.05;;;2.80;;
73729;SDS011;62036;48.128;16.458;2022-12-07T12:28:25;6.43;;;3.30;;
73729;SDS011;62036;48.128;16.458;2022-12-07T12:33:38;4.88;;;2.80;;
73729;SDS011;62036;48.128;16.458;2022-12-07T12:51:42;4.95;;;3.08;;
73729;SDS011;62036;48.128;16.458;2022-12-07T12:56:42;4.82;;;2.67;;
73729;SDS011;62036;48.128;16.458;2022-12-07T13:01:47;4.32;;;2.67;;
73729;SDS011;62036;48.128;16.458;2022-12-07T13:04:16;5.20;;;2.60;;
73729;SDS011;62036;48.128;16.458;2022-12-07T13:06:43;3.63;;;2.25;;
73729;SDS011;62036;48.128;16.458;2022-12-07T13:12:05;3.40;;;2.00;;
73729;SDS011;62036;48.128;16.458;2022-12-07T13:17:10;4.32;;;2.30;;
73729;SDS011;62036;48.128;16.458;2022-12-07T13:25:45;4.40;;;2.35;;
73729;SDS011;62036;48.128;16.458;2022-12-07T13:27:43;5.18;;;2.72;;
73729;SDS011;62036;48.128;16.458;2022-12-07T13:30:14;5.78;;;3.47;;
73729;SDS011;62036;48.128;16.458;2022-12-07T13:32:40;5.22;;;2.97;;
73729;SDS011;62036;48.128;16.458;2022-12-07T13:37:51;6.78;;;3.58;;
73729;SDS011;62036;48.128;16.458;2022-12-07T13:40:18;7.63;;;4.03;;
73729;SDS011;62036;48.128;16.458;2022-12-07T13:42:45;8.90;;;4.95;;
73729;SDS011;62036;48.128;16.458;2022-12-07T13:45:21;4.65;;;3.22;;
73729;SDS011;62036;48.128;16.458;2022-12-07T13:48:08;5.35;;;2.90;;
73729;SDS011;62036;48.128;16.458;2022-12-07T13:50:36;4.88;;;2.85;;
73729;SDS011;62036;48.128;16.458;2022-12-07T13:53:07;7.03;;;3.55;;
73729;SDS011;62036;48.128;16.458;2022-12-07T13:55:33;6.45;;;3.03;;
73729;SDS011;62036;48.128;16.458;2022-12-07T13:57:59;6.55;;;3.00;;
73729;SDS011;62036;48.128;16.458;2022-12-07T14:00:26;5.53;;;2.90;;
73729;SDS011;62036;48.128;16.458;2022-12-07T14:02:57;6.75;;;3.25;;
73729;SDS011;62036;48.128;16.458;2022-12-07T14:08:00;6.78;;;3.83;;
73729;SDS011;62036;48.128;16.458;2022-12-07T14:10:28;6.85;;;3.72;;
73729;SDS011;62036;48.128;16.458;2022-12-07T14:12:54;4.47;;;2.58;;
73729;SDS011;62036;48.128;16.458;2022-12-07T14:15:24;4.78;;;3.13;;
73729;SDS011;62036;48.128;16.458;2022-12-07T14:17:52;4.45;;;3.00;;
73729;SDS011;62036;48.128;16.458;2022-12-07T14:23:26;7.10;;;3.00;;
73729;SDS011;62036;48.128;16.458;2022-12-07T14:25:53;6.30;;;3.40;;
73729;SDS011;62036;48.128;16.458;2022-12-07T14:28:29;6.63;;;3.75;;
73729;SDS011;62036;48.128;16.458;2022-12-07T14:30:55;6.45;;;3.72;;
73729;SDS011;62036;48.128;16.458;2022-12-07T14:33:21;6.25;;;3.47;;
73729;SDS011;62036;48.128;16.458;2022-12-07T14:35:48;5.40;;;3.65;;
73729;SDS011;62036;48.128;16.458;2022-12-07T14:38:14;6.43;;;3.60;;
73729;SDS011;62036;48.128;16.458;2022-12-07T14:40:43;6.93;;;3.70;;
73729;SDS011;62036;48.128;16.458;2022-12-07T14:43:10;5.95;;;3.47;;
73729;SDS011;62036;48.128;16.458;2022-12-07T14:45:37;8.55;;;3.65;;
73729;SDS011;62036;48.128;16.458;2022-12-07T14:48:04;7.22;;;3.60;;
73729;SDS011;62036;48.128;16.458;2022-12-07T14:50:31;5.47;;;3.40;;
73729;SDS011;62036;48.128;16.458;2022-12-07T14:52:59;5.20;;;3.63;;
73729;SDS011;62036;48.128;16.458;2022-12-07T14:55:30;6.78;;;3.55;;
73729;SDS011;62036;48.128;16.458;2022-12-07T14:57:57;5.97;;;3.80;;
73729;SDS011;62036;48.128;16.458;2022-12-07T15:00:24;6.10;;;3.72;;
73729;SDS011;62036;48.128;16.458;2022-12-07T15:02:50;5.40;;;3.00;;
73729;SDS011;62036;48.128;16.458;2022-12-07T15:05:17;6.25;;;3.90;;
73729;SDS011;62036;48.128;16.458;2022-12-07T15:07:44;6.53;;;3.70;;
73729;SDS011;62036;48.128;16.458;2022-12-07T15:10:13;7.55;;;3.75;;
73729;SDS011;62036;48.128;16.458;2022-12-07T15:12:40;8.27;;;3.47;;
73729;SDS011;62036;48.128;16.458;2022-12-07T15:15:06;5.63;;;3.38;;
73729;SDS011;62036;48.128;16.458;2022-12-07T15:17:33;7.57;;;3.17;;
73729;SDS011;62036;48.128;16.458;2022-12-07T15:19:59;4.53;;;3.13;;
73729;SDS011;62036;48.128;16.458;2022-12-07T15:22:25;5.82;;;3.50;;
73729;SDS011;62036;48.128;16.458;2022-12-07T15:24:51;5.95;;;3.38;;
73729;SDS011;62036;48.128;16.458;2022-12-07T15:27:17;8.70;;;4.55;;
73729;SDS011;62036;48.128;16.458;2022-12-07T15:29:43;7.35;;;4.75;;
73729;SDS011;62036;48.128;16.458;2022-12-07T15:32:09;6.82;;;4.20;;
73729;SDS011;62036;48.128;16.458;2022-12-07T15:34:35;7.28;;;3.35;;
73729;SDS011;62036;48.128;16.458;2022-12-07T15:37:01;6.05;;;4.88;;
73729;SDS011;62036;48.128;16.458;2022-12-07T15:39:27;7.97;;;4.65;;
73729;SDS011;62036;48.128;16.458;2022-12-07T15:41:53;11.75;;;8.02;;
73729;SDS011;62036;48.128;16.458;2022-12-07T15:44:19;9.07;;;5.90;;
73729;SDS011;62036;48.128;16.458;2022-12-07T15:47:04;12.40;;;6.55;;
73729;SDS011;62036;48.128;16.458;2022-12-07T15:49:30;7.75;;;4.30;;
73729;SDS011;62036;48.128;16.458;2022-12-07T15:51:56;7.50;;;4.05;;
73729;SDS011;62036;48.128;16.458;2022-12-07T15:54:23;9.32;;;5.38;;
73729;SDS011;62036;48.128;16.458;2022-12-07T15:56:50;7.60;;;4.40;;
73729;SDS011;62036;48.128;16.458;2022-12-07T15:59:16;9.50;;;5.05;;
73729;SDS011;62036;48.128;16.458;2022-12-07T16:01:42;9.32;;;5.68;;
73729;SDS011;62036;48.128;16.458;2022-12-07T16:04:08;7.80;;;4.10;;
73729;SDS011;62036;48.128;16.458;2022-12-07T16:06:34;8.55;;;4.20;;
73729;SDS011;62036;48.128;16.458;2022-12-07T16:09:00;7.28;;;3.63;;
73729;SDS011;62036;48.128;16.458;2022-12-07T16:11:26;7.28;;;4.03;;
73729;SDS011;62036;48.128;16.458;2022-12-07T16:13:52;6.72;;;3.90;;
73729;SDS011;62036;48.128;16.458;2022-12-07T16:16:19;6.25;;;3.72;;
73729;SDS011;62036;48.128;16.458;2022-12-07T16:18:46;7.65;;;4.07;;
73729;SDS011;62036;48.128;16.458;2022-12-07T16:21:13;6.68;;;3.25;;
73729;SDS011;62036;48.128;16.458;2022-12-07T16:23:39;7.90;;;4.10;;
73729;SDS011;62036;48.128;16.458;2022-12-07T16:28:32;6.28;;;3.78;;
73729;SDS011;62036;48.128;16.458;2022-12-07T16:31:04;9.70;;;4.47;;
73729;SDS011;62036;48.128;16.458;2022-12-07T16:33:32;13.65;;;6.22;;
73729;SDS011;62036;48.128;16.458;2022-12-07T16:35:58;10.93;;;6.05;;
73729;SDS011;62036;48.128;16.458;2022-12-07T16:38:24;26.08;;;11.90;;
73729;SDS011;62036;48.128;16.458;2022-12-07T16:40:50;18.33;;;7.68;;
73729;SDS011;62036;48.128;16.458;2022-12-07T16:43:16;6.32;;;3.55;;
73729;SDS011;62036;48.128;16.458;2022-12-07T16:45:42;6.68;;;4.10;;
73729;SDS011;62036;48.128;16.458;2022-12-07T16:48:08;7.20;;;4.38;;
73729;SDS011;62036;48.128;16.458;2022-12-07T16:50:36;7.65;;;3.60;;
73729;SDS011;62036;48.128;16.458;2022-12-07T16:53:04;7.30;;;4.35;;
73729;SDS011;62036;48.128;16.458;2022-12-07T16:55:30;9.40;;;3.88;;